.
WxDataArchive / Data Records for 2012-09-12
2012-09-11 September 2012 2012-09-13

Data Records for Wednesday, 12 September 2012

Time	Temp	Chill	HIndex	Humid	Dewpt	 Wind 	HiWind	WindDir	Rain 	Barom 
-----	----	-----	------	-----	-----	------	------	-------	-----	----- 
00:00	62.3	62.3	62.3	66	50.8	0	0	---	0.00	30.164 
00:05	62.3	62.3	62.3	66	50.8	0	0	---	0.00	30.164 
00:10	62.3	62.3	62.3	66	50.8	0	0	---	0.00	30.164 
00:15	62.3	62.3	62.3	66	50.8	0	0	---	0.00	30.163 
00:20	62.0	62.0	62.0	66	50.5	0	0	---	0.00	30.163 
00:25	61.8	61.8	61.8	67	50.7	0	0	---	0.00	30.163 
00:30	61.6	61.6	61.6	67	50.5	0	0	---	0.00	30.163 
00:35	61.6	61.6	61.6	68	50.9	0	0	---	0.00	30.163 
00:40	61.5	61.5	61.5	68	50.8	0	0	---	0.00	30.163 
00:45	61.3	61.3	61.3	68	50.6	0	0	---	0.00	30.162 
00:50	61.2	61.2	61.2	68	50.5	0	0	---	0.00	30.162 
00:55	61.2	61.2	61.2	69	50.9	0	0	---	0.00	30.162 
01:00	61.0	61.0	61.0	69	50.8	0	0	---	0.00	30.161 
01:05	60.7	60.7	60.7	69	50.5	0	0	---	0.00	30.161 
01:10	60.5	60.5	60.5	69	50.3	0	0	---	0.00	30.161 
01:15	60.4	60.4	60.4	70	50.6	0	0	---	0.00	30.158 
01:20	60.2	60.2	60.2	70	50.4	0	0	---	0.00	30.158 
01:25	60.2	60.2	60.2	70	50.4	0	0	---	0.00	30.158 
01:30	60.2	60.2	60.2	71	50.8	0	0	---	0.00	30.161 
01:35	60.1	60.1	60.1	71	50.7	0	0	---	0.00	30.161 
01:40	60.1	60.1	60.1	71	50.7	0	0	---	0.00	30.161 
01:45	59.9	59.9	59.9	71	50.5	0	0	---	0.00	30.163 
01:50	59.8	59.8	59.8	71	50.4	0	0	---	0.00	30.163 
01:55	59.8	59.8	59.8	72	50.8	0	0	---	0.00	30.163 
02:00	59.8	59.8	59.8	71	50.4	0	1	248	0.00	30.164 
02:05	59.9	59.9	59.9	71	50.5	0	0	---	0.00	30.164 
02:10	60.1	60.1	60.1	71	50.7	0	0	---	0.00	30.164 
02:15	60.1	60.1	60.1	70	50.3	0	0	---	0.00	30.164 
02:20	60.2	60.2	60.2	70	50.4	0	0	---	0.00	30.164 
02:25	60.2	60.2	60.2	70	50.4	0	0	---	0.00	30.164 
02:30	60.4	60.4	60.4	70	50.6	0	0	---	0.00	30.164 
02:35	60.5	60.5	60.5	70	50.7	0	0	---	0.00	30.164 
02:40	60.4	60.4	60.4	70	50.6	0	0	---	0.00	30.164 
02:45	60.4	60.4	60.4	70	50.6	0	0	---	0.00	30.165 
02:50	60.4	60.4	60.4	70	50.6	0	0	---	0.00	30.165 
02:55	60.4	60.4	60.4	70	50.6	0	1	248	0.00	30.165 
03:00	60.4	60.4	60.4	70	50.6	0	0	---	0.00	30.164 
03:05	60.2	60.2	60.2	70	50.4	0	0	---	0.00	30.164 
03:10	60.1	60.1	60.1	71	50.7	0	0	---	0.00	30.164 
03:15	59.9	59.9	59.9	71	50.5	0	0	---	0.00	30.166 
03:20	59.8	59.8	59.8	71	50.4	0	0	---	0.00	30.166 
03:25	59.6	59.6	59.6	72	50.6	0	0	---	0.00	30.166 
03:30	59.5	59.5	59.5	72	50.5	0	0	---	0.00	30.170 
03:35	59.3	59.3	59.3	72	50.3	0	0	---	0.00	30.170 
03:40	59.2	59.2	59.2	73	50.5	0	0	---	0.00	30.170 
03:45	59.0	59.0	59.0	73	50.4	0	0	---	0.00	30.170 
03:50	58.9	58.9	58.9	73	50.3	0	0	---	0.00	30.170 
03:55	58.6	58.6	58.6	74	50.3	0	0	---	0.00	30.170 
04:00	58.4	58.4	58.4	74	50.1	0	0	---	0.00	30.172 
04:05	58.3	58.3	58.3	74	50.0	0	0	---	0.00	30.172 
04:10	58.0	58.0	58.0	75	50.1	0	0	---	0.00	30.172 
04:15	57.8	57.8	57.8	75	49.9	0	0	---	0.00	30.173 
04:20	57.6	57.6	57.6	76	50.1	0	0	---	0.00	30.173 
04:25	57.5	57.5	57.5	77	50.3	0	0	---	0.00	30.173 
04:30	57.3	57.3	57.3	77	50.1	0	0	---	0.00	30.170 
04:35	57.2	57.2	57.2	77	50.1	0	0	---	0.00	30.170 
04:40	57.2	57.2	57.2	78	50.4	0	0	---	0.00	30.170 
04:45	57.0	57.0	57.0	78	50.2	0	0	---	0.00	30.174 
04:50	57.0	57.0	57.0	78	50.2	0	0	---	0.00	30.174 
04:55	57.0	57.0	57.0	78	50.2	0	0	---	0.00	30.174 
05:00	57.0	57.0	57.0	78	50.2	0	0	---	0.00	30.176 
05:05	56.9	56.9	56.9	78	50.1	0	0	---	0.00	30.176 
05:10	56.7	56.7	56.7	78	49.9	0	0	---	0.00	30.176 
05:15	56.7	56.7	56.7	78	49.9	0	0	---	0.00	30.179 
05:20	56.7	56.7	56.7	79	50.3	0	0	---	0.00	30.179 
05:25	56.7	56.7	56.7	79	50.3	0	0	---	0.00	30.179 
05:30	56.6	56.6	56.6	79	50.2	0	0	---	0.00	30.180 
05:35	56.6	56.6	56.6	79	50.2	0	0	---	0.00	30.180 
05:40	56.6	56.6	56.6	79	50.2	0	0	---	0.00	30.180 
05:45	56.6	56.6	56.6	79	50.2	0	0	---	0.00	30.184 
05:50	56.5	56.5	56.5	79	50.1	0	0	---	0.00	30.184 
05:55	56.5	56.5	56.5	79	50.1	0	0	---	0.00	30.184 
06:00	56.5	56.5	56.5	79	50.1	0	0	---	0.00	30.189 
06:05	56.3	56.3	56.3	80	50.2	0	0	---	0.00	30.189 
06:10	56.3	56.3	56.3	80	50.2	0	0	---	0.00	30.189 
06:15	56.2	56.2	56.2	80	50.1	0	0	---	0.00	30.195 
06:20	56.2	56.2	56.2	80	50.1	0	0	---	0.00	30.195 
06:25	56.0	56.0	56.0	80	49.9	0	0	---	0.00	30.195 
06:30	56.0	56.0	56.0	80	49.9	0	0	---	0.00	30.198 
06:35	55.9	55.9	55.9	80	49.8	0	0	---	0.00	30.198 
06:40	55.7	55.7	55.7	81	50.0	0	0	---	0.00	30.198 
06:45	55.7	55.7	55.7	81	50.0	0	0	---	0.00	30.200 
06:50	55.6	55.6	55.6	81	49.9	0	0	---	0.00	30.200 
06:55	55.4	55.4	55.4	81	49.7	0	0	---	0.00	30.200 
07:00	55.1	55.1	55.1	82	49.7	0	0	---	0.00	30.203 
07:05	55.0	55.0	55.0	82	49.6	0	0	---	0.00	30.203 
07:10	54.8	54.8	54.8	82	49.4	0	0	---	0.00	30.203 
07:15	54.7	54.7	54.7	83	49.6	0	0	---	0.00	30.211 
07:20	54.5	54.5	54.5	83	49.4	0	0	---	0.00	30.211 
07:25	54.4	54.4	54.4	84	49.7	0	0	---	0.00	30.211 
07:30	54.2	54.2	54.2	84	49.5	0	0	---	0.00	30.218 
07:35	54.1	54.1	54.1	85	49.7	0	0	---	0.00	30.218 
07:40	53.9	53.9	53.9	85	49.5	0	0	---	0.00	30.218 
07:45	53.8	53.8	53.8	85	49.4	0	0	---	0.00	30.222 
07:50	53.8	53.8	53.8	86	49.7	0	0	---	0.00	30.222 
07:55	53.9	53.9	53.9	87	50.1	0	0	---	0.00	30.222 
08:00	53.9	53.9	53.9	87	50.1	0	0	---	0.00	30.228 
08:05	54.1	54.1	54.1	87	50.3	0	0	---	0.00	30.228 
08:10	54.4	54.4	54.4	87	50.6	0	0	---	0.00	30.228 
08:15	54.8	54.8	54.8	87	51.0	0	0	---	0.00	30.233 
08:20	55.1	55.1	55.1	87	51.3	0	0	---	0.00	30.233 
08:25	55.7	55.7	55.7	86	51.6	0	0	---	0.00	30.233 
08:30	56.2	56.2	56.2	85	51.7	0	0	---	0.00	30.234 
08:35	56.7	56.7	56.7	84	51.9	0	1	248	0.00	30.234 
08:40	57.5	57.5	57.5	83	52.4	0	0	---	0.00	30.234 
08:45	58.1	58.1	58.1	82	52.6	0	0	---	0.00	30.230 
08:50	58.7	58.7	58.7	81	52.9	0	0	---	0.00	30.230 
08:55	59.5	59.5	59.5	81	53.7	0	0	---	0.00	30.230 
09:00	60.1	60.1	60.1	80	53.9	0	0	---	0.00	30.222 
09:05	60.7	60.7	60.7	78	53.8	0	1	248	0.00	30.222 
09:10	61.3	61.3	61.3	77	54.0	0	1	248	0.00	30.222 
09:15	61.8	61.8	61.8	76	54.1	0	0	---	0.00	30.228 
09:20	62.4	62.4	62.4	76	54.7	0	1	248	0.00	30.228 
09:25	62.9	62.9	62.9	74	54.5	0	1	248	0.00	30.228 
09:30	63.4	63.4	63.4	73	54.6	0	1	248	0.00	30.231 
09:35	63.7	63.7	63.7	73	54.9	0	0	---	0.00	30.231 
09:40	64.2	64.2	64.2	72	55.0	0	1	248	0.00	30.231 
09:45	64.7	64.7	64.7	71	55.1	0	2	248	0.00	30.231 
09:50	65.3	65.3	65.3	69	54.9	0	1	248	0.00	30.231 
09:55	66.0	66.0	66.0	68	55.1	0	1	248	0.00	30.231 
10:00	66.4	66.4	66.4	68	55.5	0	2	248	0.00	30.230 
10:05	66.9	66.9	66.9	68	56.0	0	1	248	0.00	30.230 
10:10	67.8	67.8	67.8	65	55.6	0	2	248	0.00	30.230 
10:15	68.6	68.6	68.6	64	55.9	0	2	248	0.00	30.230 
10:20	69.4	69.4	69.4	62	55.8	0	2	248	0.00	30.230 
10:25	70.4	70.4	70.4	62	56.7	0	1	248	0.00	30.230 
10:30	71.6	71.6	71.6	60	57.0	0	1	248	0.00	30.229 
10:35	72.5	72.5	72.5	59	57.3	0	1	248	0.00	30.229 
10:40	73.5	73.5	73.5	57	57.3	0	1	248	0.00	30.229 
10:45	74.2	74.2	74.2	56	57.5	0	2	248	0.00	30.227 
10:50	75.1	75.1	77.6	53	56.8	0	2	248	0.00	30.227 
10:55	75.3	75.3	77.7	54	57.5	0	3	248	0.00	30.227 
11:00	75.3	75.3	77.7	54	57.5	0	2	248	0.00	30.228 
11:05	75.6	75.6	77.9	52	56.7	0	2	248	0.00	30.228 
11:10	76.1	76.1	78.1	53	57.7	0	2	248	0.00	30.228 
11:15	76.7	76.7	78.4	51	57.2	1	2	248	0.00	30.225 
11:20	76.8	76.8	78.5	51	57.3	0	1	248	0.00	30.225 
11:25	77.0	77.0	78.7	52	58.0	0	2	248	0.00	30.225 
11:30	76.8	76.8	78.5	51	57.3	1	3	248	0.00	30.225 
11:35	77.2	77.2	78.8	54	59.2	0	3	248	0.00	30.225 
11:40	77.7	77.7	79.0	50	57.6	1	2	248	0.00	30.225 
11:45	78.1	78.1	79.5	53	59.6	0	2	248	0.00	30.222 
11:50	78.3	78.3	79.4	49	57.5	0	2	248	0.00	30.222 
11:55	78.3	78.3	79.4	50	58.1	1	5	315	0.00	30.222 
12:00	78.6	78.6	79.7	50	58.4	1	2	315	0.00	30.220 
12:05	79.0	79.0	80.0	50	58.7	0	2	315	0.00	30.220 
12:10	79.8	79.8	80.5	48	58.3	0	2	315	0.00	30.220 
12:15	79.8	79.8	80.3	46	57.2	1	2	315	0.00	30.217 
12:20	79.9	79.9	80.3	45	56.6	1	3	202	0.00	30.217 
12:25	79.6	79.6	80.1	46	57.0	1	4	292	0.00	30.217 
12:30	79.8	79.8	80.2	45	56.5	1	2	292	0.00	30.212 
12:35	79.9	79.9	80.3	45	56.6	1	2	292	0.00	30.212 
12:40	80.5	80.5	80.8	46	57.8	0	2	292	0.00	30.212 
12:45	80.7	80.7	80.7	43	56.1	1	2	292	0.00	30.207 
12:50	81.1	81.1	81.4	46	58.3	1	4	90	0.00	30.207 
12:55	81.1	81.1	81.4	46	58.3	1	3	270	0.00	30.207 
13:00	81.1	81.1	81.0	43	56.5	1	3	248	0.00	30.205 
13:05	80.9	80.9	80.8	42	55.6	1	3	248	0.00	30.205 
13:10	80.7	80.7	80.8	44	56.7	1	4	292	0.00	30.205 
13:15	80.7	80.7	80.7	43	56.1	1	5	315	0.00	30.202 
13:20	80.9	80.9	80.9	43	56.3	2	5	315	0.00	30.202 
13:25	80.9	80.9	81.1	45	57.5	1	3	270	0.00	30.202 
13:30	81.1	81.1	81.4	46	58.3	1	4	270	0.00	30.203 
13:35	81.2	81.2	81.1	43	56.5	1	4	248	0.00	30.203 
13:40	81.2	81.2	81.0	42	55.9	1	3	248	0.00	30.203 
13:45	81.2	81.2	81.0	42	55.9	0	3	248	0.00	30.197 
13:50	81.6	81.6	81.3	42	56.3	1	3	292	0.00	30.197 
13:55	81.6	81.6	81.5	43	56.9	1	5	270	0.00	30.197 
14:00	81.6	81.6	81.1	40	54.9	2	3	270	0.00	30.192 
14:05	81.6	81.6	81.1	40	54.9	1	4	248	0.00	30.192 
14:10	81.6	81.6	81.3	42	56.3	1	3	248	0.00	30.192 
14:15	81.8	81.8	81.3	40	55.1	1	3	248	0.00	30.188 
14:20	81.6	81.6	81.2	41	55.6	2	5	270	0.00	30.188 
14:25	81.6	81.6	81.1	40	54.9	1	3	248	0.00	30.188 
14:30	81.8	81.8	81.3	40	55.1	1	3	248	0.00	30.181 
14:35	82.4	82.4	81.9	41	56.3	1	2	248	0.00	30.181 
14:40	82.6	82.6	82.0	40	55.8	1	3	248	0.00	30.181 
14:45	82.8	82.8	81.9	38	54.6	1	4	248	0.00	30.176 
14:50	82.6	82.6	82.1	41	56.5	1	4	248	0.00	30.176 
14:55	82.6	82.6	82.1	41	56.5	1	2	0	0.00	30.176 
15:00	82.8	82.8	82.6	43	58.0	1	3	270	0.00	30.173 
15:05	83.0	83.0	82.3	40	56.2	1	3	270	0.00	30.173 
15:10	82.8	82.8	82.0	39	55.3	1	3	315	0.00	30.173 
15:15	82.6	82.6	82.2	42	57.2	1	5	292	0.00	30.171 
15:20	82.8	82.8	82.0	39	55.3	1	3	270	0.00	30.171 
15:25	82.8	82.8	82.3	41	56.7	1	3	270	0.00	30.171 
15:30	83.0	83.0	82.5	41	56.8	1	4	22	0.00	30.165 
15:35	83.0	83.0	82.3	40	56.2	1	3	22	0.00	30.165 
15:40	83.0	83.0	82.6	42	57.5	1	3	292	0.00	30.165 
15:45	83.0	83.0	82.2	39	55.5	1	5	90	0.00	30.160 
15:50	82.6	82.6	82.0	40	55.8	2	7	90	0.00	30.160 
15:55	82.6	82.6	82.0	40	55.8	1	5	68	0.00	30.160 
16:00	82.8	82.8	82.3	41	56.7	1	4	270	0.00	30.158 
16:05	83.0	83.0	82.2	39	55.5	1	2	270	0.00	30.158 
16:10	83.0	83.0	82.5	41	56.8	0	2	270	0.00	30.158 
16:15	82.8	82.8	81.9	38	54.6	1	4	68	0.00	30.155 
16:20	82.8	82.8	82.2	40	56.0	1	3	22	0.00	30.155 
16:25	82.6	82.6	81.8	39	55.1	1	5	68	0.00	30.155 
16:30	82.4	82.4	81.7	39	54.9	2	4	315	0.00	30.152 
16:35	82.4	82.4	81.7	39	54.9	2	7	270	0.00	30.152 
16:40	82.2	82.2	81.3	37	53.3	1	5	270	0.00	30.152 
16:45	82.2	82.2	81.3	37	53.3	1	3	248	0.00	30.152 
16:50	82.2	82.2	81.3	37	53.3	1	4	248	0.00	30.152 
16:55	82.4	82.4	81.7	39	54.9	1	6	248	0.00	30.152 
17:00	82.2	82.2	81.5	39	54.7	1	6	90	0.00	30.152 
17:05	82.2	82.2	81.5	39	54.7	1	4	248	0.00	30.152 
17:10	82.0	82.0	81.2	38	53.9	1	5	292	0.00	30.152 
17:15	82.0	82.0	81.3	39	54.6	1	4	270	0.00	30.150 
17:20	82.0	82.0	81.3	39	54.6	0	2	68	0.00	30.150 
17:25	82.0	82.0	81.3	39	54.6	1	3	270	0.00	30.150 
17:30	82.0	82.0	81.3	39	54.6	1	5	270	0.00	30.147 
17:35	81.8	81.8	81.2	39	54.4	1	4	248	0.00	30.147 
17:40	81.6	81.6	81.2	41	55.6	0	4	45	0.00	30.147 
17:45	81.6	81.6	81.2	41	55.6	0	2	68	0.00	30.146 
17:50	81.4	81.4	81.0	40	54.7	1	3	292	0.00	30.146 
17:55	81.2	81.2	80.9	41	55.2	1	4	248	0.00	30.146 
18:00	81.1	81.1	80.8	41	55.1	1	5	22	0.00	30.147 
18:05	80.7	80.7	80.5	41	54.8	1	6	68	0.00	30.147 
18:10	80.5	80.5	80.5	42	55.3	1	3	270	0.00	30.147 
18:15	80.5	80.5	80.5	42	55.3	1	3	270	0.00	30.149 
18:20	80.5	80.5	80.5	42	55.3	1	3	270	0.00	30.149 
18:25	80.3	80.3	80.2	41	54.4	1	3	270	0.00	30.149 
18:30	80.3	80.3	80.3	42	55.1	1	2	315	0.00	30.150 
18:35	79.9	79.9	80.1	43	55.4	1	3	0	0.00	30.150 
18:40	79.8	79.8	80.0	43	55.3	0	2	68	0.00	30.150 
18:45	79.6	79.6	79.8	42	54.5	0	5	68	0.00	30.150 
18:50	79.6	79.6	79.9	43	55.1	0	1	270	0.00	30.150 
18:55	79.4	79.4	79.8	43	54.9	0	2	270	0.00	30.150 
19:00	79.2	79.2	79.7	44	55.4	0	2	270	0.00	30.150 
19:05	79.0	79.0	79.6	44	55.2	0	2	248	0.00	30.150 
19:10	78.8	78.8	79.5	45	55.6	0	1	248	0.00	30.150 
19:15	78.6	78.6	79.4	45	55.5	0	1	248	0.00	30.152 
19:20	78.5	78.5	79.3	45	55.4	0	1	248	0.00	30.152 
19:25	78.3	78.3	79.2	46	55.8	0	1	248	0.00	30.152 
19:30	77.9	77.9	79.0	46	55.4	0	1	248	0.00	30.152 
19:35	77.6	77.6	78.8	47	55.8	0	1	248	0.00	30.152 
19:40	77.4	77.4	78.7	47	55.6	0	3	45	0.00	30.152 
19:45	77.0	77.0	78.5	47	55.2	0	1	45	0.00	30.156 
19:50	76.8	76.8	78.4	48	55.6	0	0	---	0.00	30.156 
19:55	76.5	76.5	78.3	49	55.9	0	1	45	0.00	30.156 
20:00	76.1	76.1	78.1	49	55.5	0	0	---	0.00	30.163 
20:05	75.8	75.8	78.0	50	55.8	0	0	---	0.00	30.163 
20:10	75.4	75.4	77.8	50	55.4	0	0	---	0.00	30.163 
20:15	75.1	75.1	77.7	51	55.7	0	0	---	0.00	30.163 
20:20	74.6	74.6	74.6	52	55.8	0	0	---	0.00	30.163 
20:25	74.0	74.0	74.0	53	55.8	0	0	---	0.00	30.163 
20:30	73.7	73.7	73.7	53	55.5	0	0	---	0.00	30.166 
20:35	73.3	73.3	73.3	55	56.1	0	0	---	0.00	30.166 
20:40	72.8	72.8	72.8	57	56.7	0	0	---	0.00	30.166 
20:45	72.5	72.5	72.5	58	56.9	0	0	---	0.00	30.170 
20:50	72.0	72.0	72.0	58	56.4	0	0	---	0.00	30.170 
20:55	71.6	71.6	71.6	60	57.0	0	0	---	0.00	30.170 
21:00	71.1	71.1	71.1	61	57.0	0	0	---	0.00	30.177 
21:05	70.8	70.8	70.8	62	57.1	0	0	---	0.00	30.177 
21:10	70.4	70.4	70.4	62	56.7	0	0	---	0.00	30.177 
21:15	70.1	70.1	70.1	63	56.9	0	0	---	0.00	30.177 
21:20	69.8	69.8	69.8	64	57.1	0	0	---	0.00	30.177 
21:25	69.4	69.4	69.4	64	56.7	0	0	---	0.00	30.177 
21:30	69.1	69.1	69.1	64	56.4	0	0	---	0.00	30.183 
21:35	68.8	68.8	68.8	64	56.1	0	0	---	0.00	30.183 
21:40	68.4	68.4	68.4	65	56.2	0	0	---	0.00	30.183 
21:45	68.3	68.3	68.3	66	56.5	0	0	---	0.00	30.188 
21:50	67.9	67.9	67.9	67	56.5	0	0	---	0.00	30.188 
21:55	67.6	67.6	67.6	68	56.7	0	0	---	0.00	30.188 
22:00	67.4	67.4	67.4	69	56.9	0	0	---	0.00	30.194 
22:05	67.3	67.3	67.3	70	57.2	0	0	---	0.00	30.194 
22:10	66.9	66.9	66.9	71	57.2	0	0	---	0.00	30.194 
22:15	66.8	66.8	66.8	71	57.1	0	0	---	0.00	30.188 
22:20	66.6	66.6	66.6	72	57.3	0	0	---	0.00	30.188 
22:25	66.4	66.4	66.4	73	57.5	0	0	---	0.00	30.188 
22:30	66.3	66.3	66.3	73	57.4	0	0	---	0.00	30.188 
22:35	66.1	66.1	66.1	73	57.2	0	0	---	0.00	30.188 
22:40	66.0	66.0	66.0	73	57.1	0	0	---	0.00	30.188 
22:45	65.8	65.8	65.8	73	56.9	0	0	---	0.00	30.189 
22:50	65.6	65.6	65.6	74	57.1	0	0	---	0.00	30.189 
22:55	65.5	65.5	65.5	74	57.0	0	0	---	0.00	30.189 
23:00	65.3	65.3	65.3	75	57.2	0	0	---	0.00	30.191 
23:05	65.2	65.2	65.2	75	57.1	0	0	---	0.00	30.191 
23:10	65.0	65.0	65.0	75	56.9	0	0	---	0.00	30.191 
23:15	64.8	64.8	64.8	75	56.7	0	0	---	0.00	30.187 
23:20	64.8	64.8	64.8	76	57.0	0	0	---	0.00	30.187 
23:25	64.8	64.8	64.8	76	57.0	0	0	---	0.00	30.187 
23:30	64.8	64.8	64.8	75	56.7	0	0	---	0.00	30.188 
23:35	64.7	64.7	64.7	76	57.0	0	0	---	0.00	30.188 
23:40	64.7	64.7	64.7	76	57.0	0	0	---	0.00	30.188 
23:45	64.5	64.5	64.5	76	56.8	0	0	---	0.00	30.189 
23:50	64.3	64.3	64.3	76	56.6	0	0	---	0.00	30.189 
23:55	64.3	64.3	64.3	76	56.6	0	0	---	0.00	30.189 

CoCoRaHS
IN-AL-39
A2 Web Hosting
Creative Commons License
GoDaddy
search engine by freefind advanced

loaded 2018-11-22 05:23:15 • last modified 2010-11-18 10:43:29
Privacy PolicyDisclaimer
• wx.awcolley.com is powered by PmWiki v.2002016 •
• all content (unless otherwise noted) © 2018 A W Colley